메인 페이지
METAR-TAF:

METAR-TAF

공항 :

애빌린, 텍사스, 미국

위도: 32-25-12N, 경도: 099-51-25W, 고도: 545m

현재 날씨관측

예보는 56분 전, 15:56시(UTC)에 발표되었습니다.
남남서7kt
온도 11°C
습도 87%
기압 1012 hPa
시정: 16.1km
고도 300ft 상공 구름 보통

METAR: KDYS 191556Z 21007KT 10SM SCT003 11/09 A2989 RMK AO2A SLPNO ALSTG ESTMD PNO $

시각: 10:52 (16:52 UTC)

예보

예보는 38분 전, 16:14시(UTC)에 발표되었습니다.
예보 대상 시간: 19일 16시부터 20일 15시까지 (UTC)
남서9kt
시정 10km 이상
고도 400ft 상공 구름 조금
전환 중
19일 19시부터 19일 20시까지 (UTC)
6kt
시정 10km 이상
고도 1500ft 상공 구름 보통
고도 12000ft 상공 구름 보통
전환 중
20일 00시부터 20일 01시까지 (UTC)
북서9kt
시정 10km 이상
고도 12000ft 상공 구름 보통
전환 중
20일 05시부터 20일 06시까지 (UTC)
북북서12kt
시정 10km 이상
맑음

TAF: KDYS 191614Z 1916/2015 22009KT 9999 FEW004 QNH2981INS BECMG 1919/1920 27006KT 9999 SCT015 SCT120 QNH2973INS BECMG 2000/2001 32009KT 9999 SCT120 QNH2979INS BECMG 2005/2006 34012KT 9999 SKC QNH2998INS TX14/1921Z TN07/2014Z

4,000개 이상의 공항 관측 자료 및 예보 (METAR 및 TAF 보고).

지도상에서 검색 가능한 기상관측소가 노란 점과 빨간 점으로 표시되어 있습니다.

기상관측소 명을 보려면 표시 위로 마우스를 이동하세요.

날씨 관측과 예보를 보려면 클릭하세요.

지도 변경 : 확대하려면 엑스 표시가 있는 녹색 버튼, 축소하려면 빼기 표시가 있는 녹색 버튼, 다음 페이지의 지도를 보려면 녹색 화살표를 클릭하세요.


METAR-TAF: